Myra, Texas
Current Conditions -  °F | °C
As of 5:55 PM on Wednesday 22 Oct 2014 (Local Time) from KGLE Reporting Station
Clear Clear  
Wind Chill: 76°   Ceiling: Unl
Heat Index: 78°   Visibility: 10mi
Dew Point: 57°   Wind: 7mph
Humidity: 51%   Direction: 150°SSE
Pressure: 30.1"   Gusts: NA
Location:  33.62°N, 97.31°W
Report Text: KGLE 222255Z AUTO 15006KT 10SM CLR 25/14 A3010 RMK AO2 T02450139
Loading
Personal Weather Stations






























Interactive Weather Map
Tropical Storm Tracking
New forecast layout! Learn more

10-Day Weather Forecast

Advertisements
Track Severe Weather on mobile